Boulder City, Nevada Weather observations

Data are for observation ending at time listed.
 Day   Time    Ave.   Ave.  Ave.  Vector   Max.   Stn.    Total    Solar   Ave.  
  of    of     Air    Rel.  Wind   Wind    Wind   Baro.  Precip.   Rad.    Soil  
Year   Day     Temp.  Hum.  Speed  Dir.    Gust   Pres.                    Temp. 
2016   (PST)    F      %     mph   deg.    mph     mb.     in.     W/m2     F   
------------------------------------------------------------------------------
 211   20:10  102.9    12    2.5   218      4.0   926.6    0.00       0    107.4
 211   20:20  102.4    12    3.1   216      4.5   926.7    0.00       0    107.2
 211   20:30  102.7    12    4.0   229      5.9   926.9    0.00       0    107.1
 211   20:40  102.5    12    2.9   243      5.8   927.2    0.00       0    107.0
 211   20:50  102.1    13    7.0   348     14.4   927.7    0.00       0    106.8
 211   21:00  100.9    14    9.2   356     21.0   927.9    0.00       0    106.6
 211   21:10  100.0    14   10.4     1     24.5   928.0    0.00       0    106.4
 211   21:20   99.2    15   12.2    15     23.9   928.1    0.00       0    106.3
 211   21:30   98.2    16    9.1     5     21.0   928.4    0.00       0    106.2
 211   21:40   97.5    17    7.9   359     19.7   928.4    0.00       0    106.0
 211   21:50   97.6    17    9.7     6     15.9   928.2    0.00       0    105.9
 211   22:00   97.7    16    8.2     4     18.2   928.2    0.00       0    105.7
 211   22:10   97.4    17    6.5     1     12.1   928.1    0.00       0    105.6
 211   22:20   97.1    17    6.5     1     12.8   927.9    0.00       0    105.5
 211   22:30   96.5    18    5.0   360     10.8   927.9    0.00       0    105.3
 211   22:40   96.3    18    4.6   358      9.4   927.8    0.00       0    105.2
 211   22:50   96.1    18    4.2     5     10.4   927.9    0.00       0    105.1
 211   23:00   95.7    19    4.4     1      7.7   927.8    0.00       0    105.0
 211   23:10   95.5    19    3.6     5      6.7   927.7    0.00       0    104.8
 211   23:20   95.0    20    2.3   359      5.6   927.6    0.00       0    104.7
 211   23:30   94.8    20    2.0     1      5.7   927.6    0.00       0    104.6
 211   23:40   95.2    19    2.3   351      4.2   927.6    0.00       0    104.5
 211   23:50   95.2    18    0.7    18      2.2   927.6    0.00       0    104.3
 212    0:00   94.5    18    1.0   140      2.7   927.5    0.00       0    104.2
 212    0:10   94.1    19    1.4   209      3.4   927.6    0.00       0    104.1
 212    0:20   93.9    19    2.5   177      5.9   927.7    0.00       0    104.0
 212    0:30   93.7    19    2.2   216      3.1   927.6    0.00       0    103.9
 212    0:40   93.2    20    3.0   189      4.5   927.6    0.00       0    103.7
 212    0:50   93.3    20    4.4   176      6.7   927.5    0.00       0    103.6
 212    1:00   93.5    20    4.6   161     12.0   927.8    0.00       0    103.5
 212    1:10   93.7    20    4.0   201      7.6   928.1    0.00       0    103.4
 212    1:20   93.6    24    6.7   132     20.8   928.6    0.00       0    103.2
 212    1:30   90.5    33   14.1   166     31.0   929.1    0.00       0    103.1
 212    1:40   88.2    37   15.7   172     31.1   929.3    0.00       0    102.9
 212    1:50   88.2    36   14.2   175     24.8   929.4    0.00       0    102.8
 212    2:00   87.5    37   13.5   181     21.1   929.6    0.00       0    102.7
 212    2:10   86.9    38   14.5   166     25.5   929.5    0.00       0    102.6
 212    2:20   86.7    39   14.5   170     25.4   929.4    0.00       0    102.5
 212    2:30   86.8    38   14.0   173     23.8   929.4    0.00       0    102.4
 212    2:40   86.4    39   16.2   172     26.9   929.5    0.00       0    102.3
 212    2:50   86.1    40   14.8   175     26.2   929.5    0.00       0    102.2
 212    3:00   85.7    41   15.3   179     26.7   929.5    0.00       0    102.1
 212    3:10   85.2    43   15.9   173     26.2   929.6    0.00       0    102.0
 212    3:20   85.1    43   13.4   174     21.5   929.7    0.00       0    101.9
 212    3:30   85.0    43   12.2   176     20.1   929.7    0.00       0    101.8
 212    3:40   84.9    42   12.5   169     23.7   929.7    0.00       0    101.7
 212    3:50   84.9    42   11.8   182     19.0   929.7    0.00       0    101.6
 212    4:00   85.1    41   11.0   173     17.1   929.6    0.00       0    101.5
 212    4:10   85.0    41   10.2   185     21.4   929.5    0.00       0    101.4
 212    4:20   84.3    41    9.3   192     16.7   929.7    0.00       0    101.2
 212    4:30   83.9    41    9.7   209     17.5   929.6    0.00       0    101.1
 212    4:40   84.0    40    9.3   212     17.6   929.7    0.00       0    101.0
 212    4:50   84.1    40    9.6   208     16.2   929.8    0.00       0    100.9
 212    5:00   83.9    40   10.8   210     17.2   929.9    0.00       0    100.8
 212    5:10   83.9    40    9.3   204     17.9   929.9    0.00       7    100.7
 212    5:20   83.9    40   11.8   216     17.6   929.9    0.00      12    100.6
 212    5:30   84.1    40   12.2   210     22.3   930.1    0.00      31    100.5
 212    5:40   84.4    40   12.6   203     23.4   930.2    0.00      50    100.4
 212    5:50   84.8    40   13.0   200     24.3   930.3    0.00      65    100.3
 212    6:00   84.9    40   10.7   200     17.2   930.3    0.00      87    100.1
 212    6:10   85.1    39    9.1   198     14.8   930.3    0.00     116    100.0
 212    6:20   85.4    39    8.6   206     15.1   930.4    0.00     152    100.0
 212    6:30   85.5    39    9.8   212     17.8   930.4    0.00     178    99.9
 212    6:40   86.5    37   10.5   202     17.2   930.4    0.00     205    99.8
 212    6:50   87.5    35   10.2   188     15.4   930.5    0.00     241    99.7
 212    7:00   88.4    35   10.3   177     17.7   930.7    0.00     276    99.6
 212    7:10   88.7    35   10.4   181     17.4   930.8    0.00     314    99.5
 212    7:20   88.9    35   10.3   172     18.6   930.9    0.00     354    99.4
 212    7:30   88.9    36    8.0   159     14.3   931.0    0.00     388    99.4
 212    7:40   88.6    37    6.9   144     14.0   931.2    0.00     423    99.4
 212    7:50   88.8    37    6.2   143     14.2   931.3    0.00     449    99.3
 212    8:00   89.1    37    4.7   143     14.6   931.3    0.00     483    99.3
 212    8:10   89.0    37    5.4   145     14.0   931.3    0.00     515    99.3
 212    8:20   89.6    36    5.4   142     12.1   931.1    0.00     536    99.3
 212    8:30   91.0    34    5.0   145     13.5   931.0    0.00     567    99.4
 212    8:40   91.5    34    4.2   149     11.3   930.9    0.00     593    99.4
 212    8:50   92.7    32    4.5   117     10.9   931.0    0.00     614    99.6
 212    9:00   92.8    32    4.9   134     10.6   931.1    0.00     639    99.7
 212    9:10   93.3    32    4.2   130     11.2   931.1    0.00     658    99.8
 212    9:20   94.9    30    3.5   136      7.1   931.1    0.00     679    100.0
 212    9:30   95.9    30    4.8   115     10.1   931.1    0.00     716    100.1
 212    9:40   95.8    30    5.6   103     12.5   931.0    0.00     725    100.3
 212    9:50   96.6    29    4.8   125     10.7   931.0    0.00     716    100.5
 212   10:00   97.4    28    5.1   118     11.2   930.9    0.00     710    100.7
 212   10:10   97.1    28    5.1   163     12.3   930.8    0.00     634    101.0
 212   10:20   98.2    27    4.6   141      9.4   930.8    0.00     656    101.2
 212   10:30   99.3    26    4.3   130     11.2   930.8    0.00     762    101.5
 212   10:40   99.1    26    3.4   117      8.5   930.7    0.00     764    101.8
 212   10:50   99.9    26    5.6   121     11.8   930.7    0.00     771    102.1
 212   11:00  100.0    26    5.1   117     11.5   930.6    0.00     779    102.4
 212   11:10   99.6    26    6.2   102     15.6   930.6    0.00     726    102.7
 212   11:20  100.1    26    6.0    98     11.5   930.5    0.00     756    103.0
 212   11:30  100.2    25    5.9   108     11.0   930.3    0.00     778    103.3
 212   11:40  101.1    24    4.6   134     10.4   930.2    0.00     845    103.7
 212   11:50  101.6    24    5.6   112     11.4   930.2    0.00     846    104.0
 212   12:00  102.0    24    3.9   102      9.8   930.1    0.00     845    104.3
 212   12:10  102.1    23    4.2   148     11.5   930.0    0.00     838    104.6
 212   12:20  102.9    22    5.2   133     10.4   929.9    0.00     835    105.0
 212   12:30  103.2    22    5.2   158     11.4   929.8    0.00     823    105.2
 212   12:40  103.3    22    6.1   134     13.2   929.7    0.00     825    105.5
 212   12:50  104.0    22    5.9   104     13.4   929.5    0.00     820    105.9
 212   13:00  103.2    22    6.7   105     14.1   929.5    0.00     662    106.2
 212   13:10  102.1    22    7.4   101     15.0   929.4    0.00     506    106.5
 212   13:20  102.1    22    7.2   108     19.1   929.2    0.00     721    106.8
 212   13:30  102.2    22    6.6   152     16.2   929.1    0.00     711    107.1
 212   13:40  102.7    21    7.5   131     19.8   928.9    0.00     703    107.3
 212   13:50  102.8    21    7.1   136     17.1   928.8    0.00     704    107.6
 212   14:00  102.4    22    6.8   130     18.0   928.7    0.00     722    107.8
 212   14:10  102.6    21    8.1   151     18.5   928.6    0.00     758    108.0
 212   14:20  103.4    21    9.1   157     18.0   928.4    0.00     776    108.1
 212   14:30  102.5    22    9.1   155     19.9   928.3    0.00     748    108.3
 212   14:40  101.3    24    8.5   168     19.3   928.1    0.00     703    108.4
 212   14:50  100.1    25    7.7   130     17.8   928.0    0.00     464    108.5
 212   15:00   99.3    26   11.2   152     24.4   927.8    0.00     657    108.6
 212   15:10   99.0    26   10.3   163     24.8   927.7    0.00     554    108.7
 212   15:20   98.2    27    8.4   144     22.9   927.6    0.00     287    108.8
 212   15:30   98.0    27    8.0   150     16.1   927.4    0.00     285    108.8
 212   15:40   97.4    27    8.6   144     18.5   927.3    0.00     192    108.8
 212   15:50   96.7    27    7.9   150     19.2   927.2    0.00     176    108.8
 212   16:00   96.5    27    8.5   158     23.5   927.1    0.00     161    108.7
 212   16:10   96.2    27    6.9   152     24.5   927.0    0.00     151    108.6
 212   16:20   96.1    27    6.5   128     15.6   927.0    0.00     145    108.5
 212   16:30   96.3    27    7.5   144     16.6   926.9    0.00     151    108.4
 212   16:40   96.0    27    7.5   145     20.5   926.8    0.00     152    108.4
 212   16:50   95.9    26    7.5   150     15.7   926.8    0.00     144    108.2
 212   17:00   95.6    26    7.8   152     18.8   926.7    0.00     127    108.1
 212   17:10   95.4    26    8.4   156     18.6   926.6    0.00     101    108.0
 212   17:20   94.9    26   10.2   167     22.1   926.5    0.00      77    107.8
 212   17:30   94.5    26    9.0   160     20.1   926.4    0.00      75    107.6
 212   17:40   94.5    26    7.2   164     15.0   926.3    0.00      87    107.5
 212   17:50   94.3    26    8.4   164     17.2   926.3    0.00     124    107.3
 212   18:00   94.3    27    8.4   157     21.0   926.4    0.00     125    107.2
 212   18:10   94.1    27    8.4   154     18.0   926.3    0.00     102    107.0
 212   18:20   93.8    27    9.4   147     21.4   926.4    0.00      71    106.8
 212   18:30   93.6    28    7.9   158     19.9   926.4    0.00      45    106.7
 212   18:40   93.2    28    5.9   158     14.9   926.5    0.00      27    106.5
 212   18:50   92.8    29    5.6   160     18.3   926.4    0.00      12    106.4
 212   19:00   92.4    29    6.6   162     16.1   926.5    0.00       2    106.2
 212   19:10   92.1    29    5.9   154     14.5   926.6    0.00       0    106.0
 212   19:20   91.8    30    6.5   178     13.7   926.8    0.00       0    105.9
 212   19:30   91.6    30    6.9   165     12.6   926.8    0.00       0    105.7
 212   19:40   91.3    30    7.5   174     16.6   926.9    0.00       0    105.6
 212   19:50   91.2    31    7.2   169     19.3   926.9    0.00       0    105.4
 212   20:00   91.1    31    6.1   145     20.0   927.0    0.00       0    105.2

Return to Boulder City, Nevada graphs page.


Western Regional Climate Center,wrcc@dri.edu